Time;durP1;ratioP1;P1;durP2;ratioP2;P2;SDS_P1;SDS_P2;PMS_P1;PMS_P2;Temp;Humidity;BMP_temperature;BMP_pressure;BME280_temperature;BME280_humidity;BME280_pressure;Samples;Min_cycle;Max_cycle;Signal;HPM_P1;HPM_P2
2021/01/11 00:02:24;;;;;;;;;;;;;;;15.33;61.75;100931.59;4862145;24;1943;-65
2021/01/11 00:05:31;;;;;;;;;;;;;;;15.32;61.21;100931.63;4835838;29;998;-65
2021/01/11 00:08:01;;;;;;;;;;;;;;;15.33;61.77;100935.97;4825001;29;1366;-66
2021/01/11 00:20:52;;;;;;;;;;;;;;;15.26;60.86;100939.75;4838700;29;1146;-66
2021/01/11 00:23:27;;;;;;;;;;;;;;;15.24;61.26;100942.47;4831223;29;1900;-66
2021/01/11 00:26:39;;;;;;;;;;;;;;;15.24;61.60;100936.34;4766149;30;1372;-67
2021/01/11 00:29:15;;;;;;;;;;;;;;;15.24;61.71;100949.47;4780235;30;1664;-67
2021/01/11 00:32:22;;;;;;;;;;;;;;;15.19;61.02;100946.19;4771614;30;1580;-67
2021/01/11 00:34:54;;;;;;;;;;;;;;;15.21;61.50;100941.72;4836756;29;1246;-66
2021/01/11 00:37:49;;;;;;;;;;;;;;;15.19;61.01;100954.06;4822605;29;1398;-64
2021/01/11 00:40:31;;;;;;;;;;;;;;;15.20;61.80;100950.50;4839261;29;1078;-67
2021/01/11 00:43:10;;;;;;;;;;;;;;;15.18;61.85;100949.72;4839101;29;1982;-67
2021/01/11 00:46:25;;;;;;;;;;;;;;;15.16;61.33;100946.31;4839279;29;784;-69
2021/01/11 00:50:05;;;;;;;;;;;;;;;15.15;61.66;100941.97;4828820;29;1184;-67
2021/01/11 00:52:54;;;;;;;;;;;;;;;15.13;61.27;100938.56;4838667;29;1372;-67
2021/01/11 00:56:09;;;;;;;;;;;;;;;15.10;60.96;100943.91;4837313;29;936;-65
2021/01/11 00:58:40;;;;;;;;;;;;;;;15.12;61.34;100937.69;4837901;29;1253;-70
2021/01/11 01:01:54;;;;;;;;;;;;;;;15.08;60.61;100945.72;4822158;29;1185;-68
2021/01/11 01:05:15;;;;;;;;;;;;;;;15.06;60.79;100948.41;4822279;29;1266;-65
2021/01/11 01:08:19;;;;;;;;;;;;;;;15.06;61.54;100947.56;4833202;29;1349;-66
2021/01/11 01:11:31;;;;;;;;;;;;;;;15.05;60.80;100951.94;4797897;29;1614;-64
2021/01/11 01:13:58;;;;;;;;;;;;;;;15.04;61.21;100950.25;4798301;29;1535;-65
2021/01/11 01:16:25;;;;;;;;;;;;;;;15.04;60.79;100952.88;4837954;29;1139;-66
2021/01/11 01:18:52;;;;;;;;;;;;;;;15.02;61.44;100956.44;4839094;29;1258;-66
2021/01/11 01:21:18;;;;;;;;;;;;;;;15.04;61.48;100949.41;4839086;29;1122;-66
2021/01/11 01:23:44;;;;;;;;;;;;;;;15.00;61.79;100958.28;4838493;29;1911;-66
2021/01/11 01:26:10;;;;;;;;;;;;;;;15.00;60.87;100951.28;4839008;29;1123;-64
2021/01/11 01:28:38;;;;;;;;;;;;;;;15.01;61.04;100952.13;4838710;29;1227;-67
2021/01/11 01:31:04;;;;;;;;;;;;;;;14.99;61.40;100957.44;4838946;29;1141;-65
2021/01/11 01:33:30;;;;;;;;;;;;;;;14.94;60.77;100958.53;4838813;29;1311;-66
2021/01/11 01:35:57;;;;;;;;;;;;;;;14.96;61.83;100959.31;4838954;29;1143;-66
2021/01/11 01:38:23;;;;;;;;;;;;;;;14.95;61.14;100963.72;4837214;29;1270;-64
2021/01/11 01:40:49;;;;;;;;;;;;;;;14.93;60.99;100967.28;4838191;29;1065;-65
2021/01/11 01:43:15;;;;;;;;;;;;;;;14.92;60.88;100973.47;4837990;29;1919;-65
2021/01/11 01:45:41;;;;;;;;;;;;;;;14.94;61.85;100971.63;4838376;29;1267;-65
2021/01/11 01:48:09;;;;;;;;;;;;;;;14.94;61.33;100969.00;4838199;29;1241;-65
2021/01/11 01:50:36;;;;;;;;;;;;;;;14.91;61.25;100970.00;4838584;29;882;-64
2021/01/11 01:53:03;;;;;;;;;;;;;;;14.90;61.35;100981.38;4838323;29;1337;-62
2021/01/11 01:55:29;;;;;;;;;;;;;;;14.83;60.88;100982.53;4838440;29;1276;-65
2021/01/11 01:57:58;;;;;;;;;;;;;;;14.88;61.50;100984.97;4822234;29;1243;-65
2021/01/11 02:00:24;;;;;;;;;;;;;;;14.87;61.75;100983.25;4838348;29;1283;-65
2021/01/11 02:02:50;;;;;;;;;;;;;;;14.90;61.10;100983.16;4838329;29;1958;-64
2021/01/11 02:05:18;;;;;;;;;;;;;;;14.88;61.23;100984.97;4838277;29;1173;-64
2021/01/11 02:07:59;;;;;;;;;;;;;;;14.86;61.35;100989.44;4838166;29;1318;-67
2021/01/11 02:10:28;;;;;;;;;;;;;;;14.83;60.94;100993.03;4837668;29;1141;-66
2021/01/11 02:13:17;;;;;;;;;;;;;;;14.81;60.91;100991.34;4838110;29;1270;-66
2021/01/11 02:16:09;;;;;;;;;;;;;;;14.80;61.21;100984.41;4838298;29;1195;-63
2021/01/11 02:18:43;;;;;;;;;;;;;;;14.78;61.13;100985.31;4838293;29;1353;-63
2021/01/11 02:21:18;;;;;;;;;;;;;;;14.76;60.98;100986.28;4837191;29;1137;-64
2021/01/11 02:23:48;;;;;;;;;;;;;;;14.79;61.17;100991.41;4840026;29;1978;-67
2021/01/11 02:26:20;;;;;;;;;;;;;;;14.77;61.06;100994.09;4842133;29;1063;-65
2021/01/11 02:28:52;;;;;;;;;;;;;;;14.77;61.16;100988.84;4841774;29;1247;-65
2021/01/11 02:31:18;;;;;;;;;;;;;;;14.74;60.71;100988.94;4841651;29;1134;-65
2021/01/11 02:33:46;;;;;;;;;;;;;;;14.74;61.50;100994.19;4825498;29;1261;-65
2021/01/11 02:36:14;;;;;;;;;;;;;;;14.71;61.39;100996.09;4842146;29;1133;-65
2021/01/11 02:38:41;;;;;;;;;;;;;;;14.69;60.84;101006.63;4840299;29;1270;-66
2021/01/11 02:41:07;;;;;;;;;;;;;;;14.70;60.86;100992.63;4825570;29;904;-66
2021/01/11 02:43:33;;;;;;;;;;;;;;;14.70;60.69;101002.25;4841905;29;1915;-63
2021/01/11 02:46:00;;;;;;;;;;;;;;;14.68;60.83;100994.41;4842027;29;1060;-65
2021/01/11 02:48:28;;;;;;;;;;;;;;;14.70;61.10;100991.75;4841904;29;1322;-65
2021/01/11 02:51:14;;;;;;;;;;;;;;;14.70;61.05;100992.63;4841717;29;1046;-65
2021/01/11 02:53:44;;;;;;;;;;;;;;;14.66;60.81;100996.25;4839955;29;1351;-63
2021/01/11 02:56:12;;;;;;;;;;;;;;;14.66;61.03;100991.00;4824985;29;1289;-65
2021/01/11 02:58:51;;;;;;;;;;;;;;;14.65;60.84;101004.19;4841278;29;1322;-65
2021/01/11 03:01:18;;;;;;;;;;;;;;;14.67;61.55;100986.63;4841057;29;1039;-65
2021/01/11 03:03:48;;;;;;;;;;;;;;;14.64;61.20;100990.22;4840751;29;1904;-65
2021/01/11 03:06:15;;;;;;;;;;;;;;;14.65;60.96;100989.28;4824645;29;1067;-66
2021/01/11 03:08:41;;;;;;;;;;;;;;;14.62;61.47;100986.78;4841181;29;1215;-65
2021/01/11 03:11:07;;;;;;;;;;;;;;;14.54;61.01;100975.72;4841511;29;1044;-65
2021/01/11 03:13:34;;;;;;;;;;;;;;;14.59;60.71;100984.25;4841217;29;1211;-66
2021/01/11 03:16:00;;;;;;;;;;;;;;;14.60;60.65;100970.25;4824353;29;1391;-65
2021/01/11 03:18:27;;;;;;;;;;;;;;;14.62;60.95;100975.47;4840883;29;1231;-65
2021/01/11 03:20:53;;;;;;;;;;;;;;;14.60;60.87;100970.25;4841169;29;1149;-64
2021/01/11 03:23:19;;;;;;;;;;;;;;;14.58;61.05;100972.09;4840703;29;1907;-63
2021/01/11 03:25:46;;;;;;;;;;;;;;;14.55;60.53;100964.34;4840890;29;1030;-66
2021/01/11 03:28:13;;;;;;;;;;;;;;;14.54;60.61;100970.47;4841003;29;1329;-65
2021/01/11 03:30:39;;;;;;;;;;;;;;;14.57;60.80;100973.00;4839504;29;1156;-66
2021/01/11 03:33:05;;;;;;;;;;;;;;;14.59;61.05;100979.03;4840564;29;1313;-65
2021/01/11 03:35:32;;;;;;;;;;;;;;;14.56;60.55;100984.38;4839881;29;1067;-65
2021/01/11 03:37:58;;;;;;;;;;;;;;;14.53;60.71;100984.47;4839239;29;1334;-65
2021/01/11 03:40:24;;;;;;;;;;;;;;;14.52;60.85;100982.78;4824292;29;945;-65
2021/01/11 03:42:50;;;;;;;;;;;;;;;14.51;61.02;100991.56;4840792;29;1911;-65
2021/01/11 03:45:17;;;;;;;;;;;;;;;14.50;60.60;100986.38;4840591;29;1131;-65
2021/01/11 03:47:43;;;;;;;;;;;;;;;14.48;60.65;100986.44;4840610;29;1241;-65
2021/01/11 03:50:10;;;;;;;;;;;;;;;14.50;60.72;100991.63;4840436;29;1025;-65
2021/01/11 03:52:38;;;;;;;;;;;;;;;14.48;60.79;100985.56;4840286;29;1305;-66
2021/01/11 03:55:05;;;;;;;;;;;;;;;14.49;61.19;100992.53;4840326;29;1069;-63
2021/01/11 03:57:31;;;;;;;;;;;;;;;14.47;60.52;100989.94;4840174;29;1368;-63
2021/01/11 03:59:59;;;;;;;;;;;;;;;14.49;61.16;100993.38;4839093;29;1054;-63
2021/01/11 04:02:25;;;;;;;;;;;;;;;14.46;61.05;100998.75;4823705;29;1204;-64
2021/01/11 04:04:52;;;;;;;;;;;;;;;14.45;60.82;101006.63;4840355;29;1927;-65
2021/01/11 04:07:18;;;;;;;;;;;;;;;14.45;60.32;101004.00;4823182;29;1317;-66
2021/01/11 04:09:44;;;;;;;;;;;;;;;14.45;60.75;101009.25;4840352;29;777;-66
2021/01/11 04:12:11;;;;;;;;;;;;;;;14.40;60.56;101004.19;4840256;29;1223;-65
2021/01/11 04:14:37;;;;;;;;;;;;;;;14.38;60.67;101013.84;4839961;29;1581;-65
2021/01/11 04:17:03;;;;;;;;;;;;;;;14.43;60.63;101014.56;4838886;29;1288;-65
2021/01/11 04:19:29;;;;;;;;;;;;;;;14.41;60.43;101016.38;4839890;29;792;-65
2021/01/11 04:21:55;;;;;;;;;;;;;;;14.37;60.46;101009.53;4840125;29;1294;-66
2021/01/11 04:24:22;;;;;;;;;;;;;;;14.39;60.14;101012.09;4838923;29;1916;-66
2021/01/11 04:26:48;;;;;;;;;;;;;;;14.40;61.41;101017.31;4823623;29;1058;-66
2021/01/11 04:29:14;;;;;;;;;;;;;;;14.40;60.31;101012.06;4839807;29;1207;-65
2021/01/11 04:31:40;;;;;;;;;;;;;;;14.36;60.36;101009.59;4840342;29;1046;-64
2021/01/11 04:34:07;;;;;;;;;;;;;;;14.38;60.54;101013.84;4839604;29;1322;-64
2021/01/11 04:36:34;;;;;;;;;;;;;;;14.38;60.47;101011.22;4839549;29;1054;-64
2021/01/11 04:39:00;;;;;;;;;;;;;;;14.37;60.91;101013.91;4823169;29;1315;-64
2021/01/11 04:41:37;;;;;;;;;;;;;;;14.36;60.63;101014.81;4839763;29;1059;-65
2021/01/11 04:44:07;;;;;;;;;;;;;;;14.35;60.34;101010.50;4839459;29;1982;-65
2021/01/11 04:46:33;;;;;;;;;;;;;;;14.36;60.35;101007.81;4839673;29;1146;-65
2021/01/11 04:49:00;;;;;;;;;;;;;;;14.33;61.11;101010.53;4823279;29;1227;-65
2021/01/11 04:51:27;;;;;;;;;;;;;;;14.35;60.98;101010.50;4839847;29;952;-65
2021/01/11 04:53:55;;;;;;;;;;;;;;;14.32;60.51;101010.59;4807833;29;1250;-65
2021/01/11 04:56:22;;;;;;;;;;;;;;;14.32;60.79;101003.56;4839775;29;929;-66
2021/01/11 04:58:54;;;;;;;;;;;;;;;14.34;60.28;101008.78;4822651;29;1342;-65
2021/01/11 05:01:22;;;;;;;;;;;;;;;14.30;60.14;101004.50;4837783;29;998;-65
2021/01/11 05:03:49;;;;;;;;;;;;;;;14.24;60.89;101011.69;4837715;29;1903;-65
2021/01/11 05:06:16;;;;;;;;;;;;;;;14.31;60.40;101009.72;4839543;29;1044;-65
2021/01/11 05:08:43;;;;;;;;;;;;;;;14.30;61.05;101020.25;4837660;29;1243;-65
2021/01/11 05:11:09;;;;;;;;;;;;;;;14.29;60.21;101015.94;4838968;29;1137;-65
2021/01/11 05:13:35;;;;;;;;;;;;;;;14.23;60.49;101016.97;4838819;29;1282;-65
2021/01/11 05:16:12;;;;;;;;;;;;;;;14.27;60.49;101021.22;4822635;29;1584;-65
2021/01/11 05:18:39;;;;;;;;;;;;;;;14.27;60.25;101021.22;4838925;29;1277;-64
2021/01/11 05:21:05;;;;;;;;;;;;;;;14.21;60.21;101026.66;4838445;29;1506;-65
2021/01/11 05:23:38;;;;;;;;;;;;;;;14.22;60.77;101025.75;4820604;29;1904;-65
2021/01/11 05:26:11;;;;;;;;;;;;;;;14.24;60.32;101027.41;4820121;29;1737;-64
2021/01/11 05:29:15;;;;;;;;;;;;;;;14.25;59.90;101030.91;4838395;29;1341;-64
2021/01/11 05:31:51;;;;;;;;;;;;;;;14.25;59.91;101041.38;4839005;29;1069;-64
2021/01/11 05:34:17;;;;;;;;;;;;;;;14.23;59.94;101040.53;4822111;29;1095;-64
2021/01/11 05:36:45;;;;;;;;;;;;;;;14.21;60.10;101039.75;4838881;29;1031;-64
2021/01/11 05:39:11;;;;;;;;;;;;;;;14.20;60.26;101041.50;4836944;29;1235;-66
2021/01/11 05:41:41;;;;;;;;;;;;;;;14.21;60.29;101045.84;4838909;29;1057;-65
2021/01/11 05:44:14;;;;;;;;;;;;;;;14.21;60.34;101053.72;4822329;29;1927;-65
2021/01/11 05:46:41;;;;;;;;;;;;;;;14.20;60.51;101053.75;4838853;29;923;-63
2021/01/11 05:49:09;;;;;;;;;;;;;;;14.16;60.13;101058.22;4838374;29;1215;-65
2021/01/11 05:51:37;;;;;;;;;;;;;;;14.19;59.99;101057.31;4838961;29;1160;-66
2021/01/11 05:54:04;;;;;;;;;;;;;;;14.18;60.12;101055.56;4838524;29;1291;-66
2021/01/11 05:56:50;;;;;;;;;;;;;;;14.18;59.98;101060.81;4821103;29;1502;-65
2021/01/11 05:59:17;;;;;;;;;;;;;;;14.14;59.87;101069.69;4838376;29;1314;-69
2021/01/11 06:01:43;;;;;;;;;;;;;;;14.13;60.03;101073.22;4838167;29;901;-66
2021/01/11 06:04:09;;;;;;;;;;;;;;;14.15;60.31;101072.25;4836938;29;1911;-65
2021/01/11 06:06:35;;;;;;;;;;;;;;;14.14;59.81;101074.91;4838636;29;1030;-66
2021/01/11 06:09:02;;;;;;;;;;;;;;;14.15;60.67;101071.41;4838016;29;1239;-65
2021/01/11 06:11:28;;;;;;;;;;;;;;;14.16;60.07;101076.56;4838411;29;1169;-63
2021/01/11 06:13:58;;;;;;;;;;;;;;;14.13;60.18;101073.22;4837691;29;1631;-65
2021/01/11 06:16:26;;;;;;;;;;;;;;;14.13;59.72;101067.97;4838026;29;1101;-65
2021/01/11 06:18:53;;;;;;;;;;;;;;;14.13;60.42;101065.38;4821451;29;1325;-67
2021/01/11 06:21:20;;;;;;;;;;;;;;;14.11;59.81;101064.53;4837884;29;1509;-65
2021/01/11 06:23:46;;;;;;;;;;;;;;;14.26;59.51;101073.69;4838225;29;1982;-65
2021/01/11 06:26:25;;;;;;;;;;;;;;;14.30;60.51;101084.00;4838362;29;1081;-65
2021/01/11 06:28:52;;;;;;;;;;;;;;;14.31;59.89;101085.72;4838017;29;1219;-64
2021/01/11 06:31:19;;;;;;;;;;;;;;;14.54;60.42;101085.81;4838307;29;1038;-65
2021/01/11 06:33:46;;;;;;;;;;;;;;;14.76;60.20;101086.81;4821543;29;1235;-65
2021/01/11 06:36:31;;;;;;;;;;;;;;;14.88;59.83;101084.66;4838461;29;1129;-64
2021/01/11 06:39:08;;;;;;;;;;;;;;;14.91;59.86;101085.41;4838239;29;1239;-65
2021/01/11 06:41:39;;;;;;;;;;;;;;;15.01;59.42;101086.78;4837892;29;1170;-65
2021/01/11 06:44:07;;;;;;;;;;;;;;;15.01;59.64;101086.78;4837413;29;1919;-64
2021/01/11 06:46:42;;;;;;;;;;;;;;;15.11;59.40;101090.78;4838098;29;1077;-63
2021/01/11 06:49:27;;;;;;;;;;;;;;;15.21;59.28;101100.03;4821671;29;1279;-64
2021/01/11 06:52:01;;;;;;;;;;;;;;;15.37;59.12;101096.84;4838404;29;1349;-64
2021/01/11 06:54:44;;;;;;;;;;;;;;;15.55;58.79;101104.91;4836906;29;765;-63
2021/01/11 06:57:12;;;;;;;;;;;;;;;15.67;58.66;101106.22;4820488;29;1664;-68
2021/01/11 06:59:39;;;;;;;;;;;;;;;15.62;58.79;101110.81;4836498;29;784;-68
2021/01/11 07:02:24;;;;;;;;;;;;;;;15.66;58.71;101120.25;4837981;29;1373;-66
2021/01/11 07:04:52;;;;;;;;;;;;;;;15.69;58.63;101113.13;4837849;29;1923;-67
2021/01/11 07:07:19;;;;;;;;;;;;;;;15.70;58.69;101113.97;4837520;29;1220;-66
2021/01/11 07:09:53;;;;;;;;;;;;;;;15.75;58.58;101119.91;4823683;29;1071;-66
2021/01/11 07:12:21;;;;;;;;;;;;;;;15.83;58.25;101129.22;4838991;29;1647;-66
2021/01/11 07:14:58;;;;;;;;;;;;;;;15.79;58.48;101134.63;4829891;29;1418;-67
2021/01/11 07:17:33;;;;;;;;;;;;;;;15.80;58.49;101131.09;4830418;29;1338;-67
2021/01/11 07:19:59;;;;;;;;;;;;;;;15.81;58.48;101135.44;4833266;29;1124;-66
2021/01/11 07:22:25;;;;;;;;;;;;;;;15.85;58.19;101139.66;4825191;29;1301;-67
2021/01/11 07:24:53;;;;;;;;;;;;;;;15.84;58.26;101136.16;4821558;29;1907;-68
2021/01/11 07:27:19;;;;;;;;;;;;;;;15.89;58.21;101136.00;4844858;29;1377;-65
2021/01/11 07:29:46;;;;;;;;;;;;;;;15.89;58.36;101137.78;4826919;29;1172;-66
2021/01/11 07:32:12;;;;;;;;;;;;;;;15.91;58.35;101141.19;4839743;29;1328;-66
2021/01/11 07:34:38;;;;;;;;;;;;;;;15.92;58.66;101142.91;4839276;29;852;-67
2021/01/11 07:37:06;;;;;;;;;;;;;;;15.91;58.87;101147.31;4839808;29;1337;-65
2021/01/11 07:39:35;;;;;;;;;;;;;;;15.96;58.70;101155.84;4839213;29;828;-67
2021/01/11 07:42:06;;;;;;;;;;;;;;;15.99;58.65;101168.03;4839550;29;1384;-69
2021/01/11 07:44:34;;;;;;;;;;;;;;;16.23;58.22;101169.69;4839755;29;1915;-62
2021/01/11 07:47:04;;;;;;;;;;;;;;;16.12;58.15;101172.75;4839420;29;1396;-71
2021/01/11 07:49:35;;;;;;;;;;;;;;;16.18;58.26;101179.53;4837533;29;797;-67
2021/01/11 07:52:06;;;;;;;;;;;;;;;16.27;58.02;101179.16;4837835;29;1349;-69
2021/01/11 07:54:33;;;;;;;;;;;;;;;16.13;58.32;101182.34;4838666;29;788;-67
2021/01/11 07:57:00;;;;;;;;;;;;;;;16.02;58.33;101184.50;4822398;29;1459;-69
2021/01/11 07:59:26;;;;;;;;;;;;;;;15.98;58.85;101189.97;4838575;29;836;-67
2021/01/11 08:01:52;;;;;;;;;;;;;;;15.97;58.77;101202.25;4822227;29;1254;-70
2021/01/11 08:04:19;;;;;;;;;;;;;;;15.94;58.56;101197.09;4839027;29;1911;-68
2021/01/11 08:06:50;;;;;;;;;;;;;;;15.93;58.88;101205.06;4839391;29;943;-68
2021/01/11 08:09:20;;;;;;;;;;;;;;;15.94;58.49;101212.00;4837611;29;1131;-67
2021/01/11 08:11:46;;;;;;;;;;;;;;;15.94;58.70;101217.25;4822041;29;1289;-68
2021/01/11 08:14:13;;;;;;;;;;;;;;;15.95;58.84;101224.25;4838511;29;1231;-70
2021/01/11 08:16:41;;;;;;;;;;;;;;;15.93;58.79;101229.53;4838861;29;1273;-67
2021/01/11 08:19:11;;;;;;;;;;;;;;;15.92;58.90;101226.97;4838437;29;1251;-69
2021/01/11 08:21:38;;;;;;;;;;;;;;;15.92;58.52;101230.47;4827574;29;1128;-69
2021/01/11 08:24:08;;;;;;;;;;;;;;;15.91;58.51;101236.63;4820255;29;1924;-69
2021/01/11 08:26:44;;;;;;;;;;;;;;;15.91;58.47;101238.41;4820622;29;1064;-69
2021/01/11 08:29:11;;;;;;;;;;;;;;;15.90;58.81;101239.34;4820325;29;1384;-70
2021/01/11 08:31:37;;;;;;;;;;;;;;;15.91;59.03;101241.03;4818574;29;1070;-71
2021/01/11 08:34:05;;;;;;;;;;;;;;;15.90;58.59;101252.47;4820523;29;1216;-67
2021/01/11 08:36:31;;;;;;;;;;;;;;;15.88;58.58;101252.50;4820957;29;1053;-67
2021/01/11 08:39:08;;;;;;;;;;;;;;;15.90;58.66;101260.34;4820203;29;1208;-69
2021/01/11 08:41:36;;;;;;;;;;;;;;;15.90;58.74;101263.81;4820381;29;912;-68
2021/01/11 08:44:03;;;;;;;;;;;;;;;15.93;58.57;101263.69;4819667;29;1937;-69
2021/01/11 08:46:48;;;;;;;;;;;;;;;15.91;58.45;101264.66;4803534;29;1316;-69
2021/01/11 08:49:14;;;;;;;;;;;;;;;15.91;58.32;101267.28;4820112;29;1330;-68
2021/01/11 08:51:40;;;;;;;;;;;;;;;15.91;58.54;101273.41;4820249;29;1795;-68
2021/01/11 08:54:06;;;;;;;;;;;;;;;15.91;58.47;101260.28;4819434;29;1317;-71
2021/01/11 08:56:35;;;;;;;;;;;;;;;15.93;57.94;101270.75;4820108;29;1042;-69
2021/01/11 08:59:02;;;;;;;;;;;;;;;15.90;58.29;101263.81;4818819;29;1239;-69
2021/01/11 09:01:34;;;;;;;;;;;;;;;15.90;58.16;101265.59;4820186;29;1052;-69
2021/01/11 09:04:02;;;;;;;;;;;;;;;15.90;57.79;101274.31;4819423;29;1970;-70
2021/01/11 09:06:38;;;;;;;;;;;;;;;15.93;56.93;101271.56;4803336;29;1032;-66
2021/01/11 09:09:04;;;;;;;;;;;;;;;15.95;57.67;101274.16;4822606;29;1588;-68
2021/01/11 09:11:31;;;;;;;;;;;;;;;15.94;57.57;101280.31;4827747;29;1168;-67
2021/01/11 09:14:06;;;;;;;;;;;;;;;15.91;58.28;101283.91;4829231;29;1294;-68
2021/01/11 09:16:33;;;;;;;;;;;;;;;15.89;58.20;101287.53;4837685;29;1631;-67
2021/01/11 09:19:11;;;;;;;;;;;;;;;15.88;57.94;101291.91;4822959;29;1329;-68
2021/01/11 09:21:39;;;;;;;;;;;;;;;15.91;58.43;101296.19;4834228;29;1166;-67
2021/01/11 09:24:05;;;;;;;;;;;;;;;15.91;58.01;101306.72;4820727;29;1923;-67
2021/01/11 09:26:36;;;;;;;;;;;;;;;15.92;58.21;101305.81;4828056;29;1116;-66
2021/01/11 09:29:03;;;;;;;;;;;;;;;15.92;58.35;101311.91;4837400;29;1243;-67
2021/01/11 09:31:29;;;;;;;;;;;;;;;15.91;58.43;101312.81;4830847;29;1541;-67
2021/01/11 09:34:00;;;;;;;;;;;;;;;15.92;58.14;101318.94;4831825;29;1389;-66
2021/01/11 09:36:36;;;;;;;;;;;;;;;15.92;57.89;101318.94;4821347;29;62832;-67
2021/01/11 09:39:04;;;;;;;;;;;;;;;15.91;58.18;101327.72;4832344;29;1469;-67
2021/01/11 09:41:30;;;;;;;;;;;;;;;15.90;58.34;101332.13;4820249;29;1741;-67
2021/01/11 09:43:57;;;;;;;;;;;;;;;15.91;58.18;101333.84;4817006;29;60882;-67
2021/01/11 09:46:23;;;;;;;;;;;;;;;15.91;58.02;101340.88;4835506;29;83618;-68
2021/01/11 09:48:49;;;;;;;;;;;;;;;15.89;58.01;101340.06;4851453;29;1222;-69
2021/01/11 09:51:16;;;;;;;;;;;;;;;15.98;57.63;101345.00;4837254;29;1231;-67
2021/01/11 09:53:42;;;;;;;;;;;;;;;15.97;57.51;101343.28;4837002;29;1331;-68
2021/01/11 09:56:08;;;;;;;;;;;;;;;15.87;57.43;101350.63;4836796;29;1062;-68
2021/01/11 09:58:34;;;;;;;;;;;;;;;15.82;57.29;101349.94;4837215;29;1242;-71
2021/01/11 10:01:00;;;;;;;;;;;;;;;15.87;57.87;101357.66;4836935;29;1046;-70
2021/01/11 10:03:27;;;;;;;;;;;;;;;15.88;57.38;101354.09;4820134;29;1911;-70
2021/01/11 10:05:55;;;;;;;;;;;;;;;15.89;56.33;101361.94;4819114;29;1041;-72
2021/01/11 10:08:21;;;;;;;;;;;;;;;15.87;57.48;101358.50;4836714;29;1217;-70
2021/01/11 10:10:47;;;;;;;;;;;;;;;15.90;57.89;101357.56;4837026;29;920;-69
2021/01/11 10:13:13;;;;;;;;;;;;;;;15.90;56.88;101357.56;4820119;29;1232;-70
2021/01/11 10:15:40;;;;;;;;;;;;;;;15.86;56.66;101356.81;4836106;29;1207;-69
2021/01/11 10:18:06;;;;;;;;;;;;;;;15.89;56.73;101355.84;4836334;29;1290;-70
2021/01/11 10:20:33;;;;;;;;;;;;;;;15.88;57.83;101354.97;4820830;29;938;-69
2021/01/11 10:22:59;;;;;;;;;;;;;;;15.89;57.02;101361.09;4850166;29;1290;-68
2021/01/11 10:25:26;;;;;;;;;;;;;;;15.88;56.92;101360.22;4836517;29;1935;-68
2021/01/11 10:27:54;;;;;;;;;;;;;;;15.87;57.08;101362.91;4836265;29;1270;-68
2021/01/11 10:30:21;;;;;;;;;;;;;;;15.87;57.31;101363.75;4836371;29;903;-67
2021/01/11 10:32:47;;;;;;;;;;;;;;;15.90;56.89;101368.06;4836650;29;1298;-68
2021/01/11 10:35:14;;;;;;;;;;;;;;;15.92;56.75;101363.59;4836543;29;1039;-67
2021/01/11 10:37:41;;;;;;;;;;;;;;;15.88;57.00;101369.88;4836009;29;1273;-67
2021/01/11 10:40:08;;;;;;;;;;;;;;;15.93;56.62;101373.22;4836463;29;1140;-67
2021/01/11 10:42:34;;;;;;;;;;;;;;;15.90;57.98;101371.53;4836041;29;1385;-67
2021/01/11 10:45:01;;;;;;;;;;;;;;;15.84;58.30;101369.97;4822963;29;2004;-65
2021/01/11 10:47:27;;;;;;;;;;;;;;;15.87;57.41;101362.91;4840044;29;1275;-66
2021/01/11 10:49:53;;;;;;;;;;;;;;;15.93;57.85;101360.09;4839348;29;1242;-67
2021/01/11 10:52:20;;;;;;;;;;;;;;;15.95;57.47;101359.09;4839197;29;1450;-68
2021/01/11 10:55:06;;;;;;;;;;;;;;;15.98;57.70;101353.75;4821370;29;1189;-68
2021/01/11 10:57:32;;;;;;;;;;;;;;;16.02;57.06;101355.31;4832690;29;1264;-68
2021/01/11 10:59:58;;;;;;;;;;;;;;;16.05;57.46;101362.28;4840119;29;1115;-68
2021/01/11 11:02:25;;;;;;;;;;;;;;;16.04;57.15;101366.66;4839661;29;1294;-68
2021/01/11 11:04:51;;;;;;;;;;;;;;;16.03;57.30;101354.44;4839673;29;1988;-68
2021/01/11 11:07:17;;;;;;;;;;;;;;;16.04;57.45;101356.16;4839141;29;1373;-68
2021/01/11 11:09:44;;;;;;;;;;;;;;;16.03;57.20;101356.19;4839869;29;879;-69
2021/01/11 11:12:10;;;;;;;;;;;;;;;15.98;57.63;101345.00;4835204;29;1290;-68
2021/01/11 11:14:36;;;;;;;;;;;;;;;16.02;57.43;101343.97;4836166;29;1139;-66
2021/01/11 11:17:13;;;;;;;;;;;;;;;16.04;57.37;101350.03;4827766;29;1307;-68
2021/01/11 11:19:40;;;;;;;;;;;;;;;16.03;57.34;101337.78;4836765;29;1056;-68
2021/01/11 11:22:08;;;;;;;;;;;;;;;16.16;57.15;101337.31;4826282;29;1400;-68
2021/01/11 11:24:34;;;;;;;;;;;;;;;16.06;57.38;101342.94;4839631;29;1892;-67
2021/01/11 11:27:02;;;;;;;;;;;;;;;16.00;57.50;101337.91;4839823;29;1294;-67
2021/01/11 11:29:28;;;;;;;;;;;;;;;16.07;57.49;101336.78;4822549;29;1317;-65
2021/01/11 11:31:54;;;;;;;;;;;;;;;16.05;57.52;101334.19;4830199;29;1405;-66
2021/01/11 11:34:20;;;;;;;;;;;;;;;16.05;57.72;101334.19;4820396;29;849;-66
2021/01/11 11:36:47;;;;;;;;;;;;;;;16.05;57.71;101336.81;4827825;29;1025;-66
2021/01/11 11:39:13;;;;;;;;;;;;;;;16.03;57.60;101335.16;4822283;29;1279;-66
2021/01/11 11:41:41;;;;;;;;;;;;;;;16.03;57.63;101328.16;4838928;29;1016;-66
2021/01/11 11:44:07;;;;;;;;;;;;;;;16.02;57.60;101336.94;4838833;29;1978;-66
2021/01/11 11:46:33;;;;;;;;;;;;;;;16.01;57.31;101329.13;4838315;29;1566;-65
2021/01/11 11:48:59;;;;;;;;;;;;;;;15.97;57.10;101322.25;4834626;29;1235;-67
2021/01/11 11:51:27;;;;;;;;;;;;;;;15.90;57.37;101321.59;4821768;29;987;-66
2021/01/11 11:53:55;;;;;;;;;;;;;;;15.85;57.22;101313.03;4838849;29;1235;-67
2021/01/11 11:56:21;;;;;;;;;;;;;;;15.88;57.89;101307.69;4838384;29;1032;-66
2021/01/11 11:58:47;;;;;;;;;;;;;;;15.85;57.30;101306.03;4839075;29;1247;-67
2021/01/11 12:01:13;;;;;;;;;;;;;;;15.87;57.77;101294.63;4838918;29;1077;-67
2021/01/11 12:03:40;;;;;;;;;;;;;;;15.84;56.76;101304.31;4852549;29;1984;-66
2021/01/11 12:06:06;;;;;;;;;;;;;;;15.90;56.48;101294.50;4838702;29;1077;-67
2021/01/11 12:08:32;;;;;;;;;;;;;;;15.84;56.31;101288.53;4839234;29;1304;-67
2021/01/11 12:10:59;;;;;;;;;;;;;;;15.99;57.60;101286.28;4838697;29;1054;-65
2021/01/11 12:13:25;;;;;;;;;;;;;;;15.94;56.92;101277.69;4838647;29;1318;-65
2021/01/11 12:15:51;;;;;;;;;;;;;;;15.95;56.73;101272.41;4832893;29;1589;-64
2021/01/11 12:18:18;;;;;;;;;;;;;;;15.97;56.53;101259.19;4827848;29;1204;-64
2021/01/11 12:20:44;;;;;;;;;;;;;;;15.93;54.88;101260.25;4839666;29;953;-66
2021/01/11 12:23:10;;;;;;;;;;;;;;;15.93;54.85;101257.59;4852054;29;1334;-65
2021/01/11 12:25:36;;;;;;;;;;;;;;;15.88;54.04;101254.28;4838476;29;1899;-66
2021/01/11 12:28:07;;;;;;;;;;;;;;;15.86;53.99;101251.72;4838138;29;1357;-67
2021/01/11 12:30:33;;;;;;;;;;;;;;;15.82;53.85;101243.09;4837343;29;1076;-66
2021/01/11 12:32:59;;;;;;;;;;;;;;;15.85;55.44;101258.75;4838265;29;1282;-67
2021/01/11 12:35:27;;;;;;;;;;;;;;;15.83;56.29;101242.19;4836951;29;1001;-70
2021/01/11 12:37:53;;;;;;;;;;;;;;;15.90;57.07;101242.78;4838440;29;1334;-69
2021/01/11 12:40:21;;;;;;;;;;;;;;;15.94;57.03;101239.16;4838112;29;1156;-69
2021/01/11 12:42:47;;;;;;;;;;;;;;;15.91;56.66;101227.88;4821401;29;1314;-69
2021/01/11 12:45:13;;;;;;;;;;;;;;;15.96;56.01;101234.69;4838030;29;1911;-69
2021/01/11 12:47:40;;;;;;;;;;;;;;;16.04;56.61;101221.25;4851555;29;1329;-66
2021/01/11 12:50:07;;;;;;;;;;;;;;;15.98;56.15;101234.63;4812941;29;1274;-67
2021/01/11 12:52:34;;;;;;;;;;;;;;;15.91;56.41;101233.13;4832652;29;1306;-65
2021/01/11 12:55:00;;;;;;;;;;;;;;;15.98;55.47;101235.50;4838244;29;1169;-71
2021/01/11 12:57:26;;;;;;;;;;;;;;;16.02;56.79;101229.19;4837743;29;1302;-73
2021/01/11 12:59:54;;;;;;;;;;;;;;;16.00;55.29;101230.16;4820851;29;1551;-70
2021/01/11 13:02:20;;;;;;;;;;;;;;;15.98;53.89;101232.00;4837794;29;1539;-72
2021/01/11 13:04:49;;;;;;;;;;;;;;;16.15;57.06;101234.84;4837569;29;1974;-68
2021/01/11 13:07:19;;;;;;;;;;;;;;;16.20;59.54;101235.53;4837606;29;1543;-70
2021/01/11 13:09:45;;;;;;;;;;;;;;;16.30;59.98;101218.47;4838078;29;830;-71
2021/01/11 13:12:11;;;;;;;;;;;;;;;16.32;59.79;101233.25;4838375;29;1426;-72
2021/01/11 13:14:37;;;;;;;;;;;;;;;16.36;59.34;101237.50;4838074;29;753;-72